ME05 weather

Allen St Peter Memorial Airport
Portage, Maine, United States

Public forecast

Using degrees Fahrenheit for public forecast. Weather courtesy of forecast.io.

METAR (pilot weather report)

Closest report is Northern Maine Regional Airport at Presque Isle, 17.9 nm (33.2 km) ESE. Retrieved 2019/07/22 16:56 UTC (44 minutes ago):

KPQI 221656Z AUTO 30007KT 10SM SCT050 21/09 A2989 RMK AO2 SLP145 T02060094

TAF (pilot weather forecast)

Closest forecast is Northern Maine Regional Airport at Presque Isle, 17.9 nm (33.2 km) ESE. Retrieved 2019/07/22 12:22 UTC (5 hours ago):

TAF KPQI 221120Z 2212/2312 32006KT P6SM FEW090 FM221700 29007KT P6SM SCT100 FM222100 27003KT P6SM SCT100 FM230200 18004KT P6SM BKN100